Time;durP1;ratioP1;P1;durP2;ratioP2;P2;SDS_P1;SDS_P2;PMS_P1;PMS_P2;Temp;Humidity;BMP_temperature;BMP_pressure;BME280_temperature;BME280_humidity;BME280_pressure;Samples;Min_cycle;Max_cycle;Signal;HPM_P1;HPM_P2
2024/03/14 00:04:09;;;;;;;12.30;6.03;;;;;;;13.78;73.60;100360.72;10394459;28;20543;-57
2024/03/14 00:09:11;;;;;;;12.23;6.30;;;;;;;13.77;73.59;100367.16;10396216;28;20072;-57
2024/03/14 00:14:13;;;;;;;8.70;4.93;;;;;;;13.72;73.73;100358.81;10396829;28;20057;-58
2024/03/14 00:19:15;;;;;;;12.02;5.43;;;;;;;13.69;73.70;100360.88;10393329;28;20056;-58
2024/03/14 00:24:17;;;;;;;12.65;5.93;;;;;;;13.72;73.60;100353.41;10394882;28;20072;-57
2024/03/14 00:29:18;;;;;;;14.20;5.90;;;;;;;13.66;73.69;100355.88;10395694;28;20049;-59
2024/03/14 00:34:20;;;;;;;8.05;5.72;;;;;;;13.52;74.15;100362.19;10390863;28;20068;-58
2024/03/14 00:39:23;;;;;;;11.93;5.85;;;;;;;13.53;74.01;100358.47;10391526;28;20057;-58
2024/03/14 00:44:25;;;;;;;7.00;4.63;;;;;;;13.53;74.12;100352.25;10394304;28;20084;-59
2024/03/14 00:49:26;;;;;;;8.70;4.95;;;;;;;13.64;73.60;100355.22;10404864;28;20045;-59
2024/03/14 00:54:28;;;;;;;11.45;5.20;;;;;;;13.61;73.44;100355.63;10405970;28;20052;-59
2024/03/14 00:59:30;;;;;;;9.35;4.22;;;;;;;13.59;73.51;100354.16;10408435;28;20061;-59
2024/03/14 01:04:32;;;;;;;7.28;4.93;;;;;;;13.62;73.33;100354.56;10407982;28;20052;-59
2024/03/14 01:09:33;;;;;;;8.00;4.90;;;;;;;13.63;73.31;100350.84;10403783;28;20041;-59
2024/03/14 01:14:35;;;;;;;12.20;5.20;;;;;;;13.56;73.29;100352.66;10404033;28;20061;-59
2024/03/14 01:19:37;;;;;;;8.63;4.65;;;;;;;13.50;73.58;100342.63;10392447;28;20065;-59
2024/03/14 01:24:38;;;;;;;12.18;4.75;;;;;;;13.55;73.41;100342.06;10406010;28;20052;-59
2024/03/14 01:29:39;;;;;;;10.80;4.35;;;;;;;13.48;73.09;100331.19;10391556;28;20080;-59
2024/03/14 01:34:41;;;;;;;9.63;5.25;;;;;;;13.46;73.30;100327.84;10403938;28;20049;-59
2024/03/14 01:39:43;;;;;;;6.05;4.13;;;;;;;13.39;73.40;100326.97;10406018;28;20063;-59
2024/03/14 01:44:44;;;;;;;10.68;4.57;;;;;;;13.33;73.50;100330.44;10404107;28;20068;-59
2024/03/14 01:49:45;;;;;;;9.55;4.30;;;;;;;13.22;73.99;100329.91;10405213;28;20057;-59
2024/03/14 01:54:48;;;;;;;8.43;4.80;;;;;;;13.22;73.63;100319.13;10405371;28;20049;-59
2024/03/14 01:59:53;;;;;;;9.32;4.38;;;;;;;13.16;73.55;100321.75;10402067;28;20054;-59
2024/03/14 02:05:28;;;;;;;7.78;4.22;;;;;;;13.10;73.60;100315.28;10403377;28;20119;-59
2024/03/14 02:10:29;;;;;;;9.20;3.88;;;;;;;13.01;73.84;100324.50;10404990;28;20060;-59
2024/03/14 02:15:31;;;;;;;7.20;4.28;;;;;;;13.00;73.58;100309.38;10399851;28;20052;-59
2024/03/14 02:20:33;;;;;;;12.32;5.15;;;;;;;12.91;73.76;100305.94;10405206;28;20730;-59
2024/03/14 02:25:35;;;;;;;9.57;4.30;;;;;;;12.85;73.67;100296.75;10403220;28;20046;-59
2024/03/14 02:30:37;;;;;;;9.32;5.15;;;;;;;12.80;73.58;100295.69;10403543;28;20063;-59
2024/03/14 02:35:39;;;;;;;10.20;4.85;;;;;;;12.79;73.55;100285.91;10402514;28;20056;-59
2024/03/14 02:40:40;;;;;;;8.25;4.45;;;;;;;12.75;73.47;100287.31;10404228;28;20058;-59
2024/03/14 02:45:42;;;;;;;7.85;5.40;;;;;;;12.67;73.16;100283.72;10401754;28;20060;-59
2024/03/14 02:50:44;;;;;;;11.93;4.43;;;;;;;12.61;73.25;100286.34;10405457;28;20045;-59
2024/03/14 02:55:45;;;;;;;7.85;4.53;;;;;;;12.53;72.96;100286.47;10405161;28;20067;-59
2024/03/14 03:00:48;;;;;;;15.02;5.80;;;;;;;12.44;73.48;100283.03;10403870;28;20056;-59
2024/03/14 03:05:50;;;;;;;8.05;4.85;;;;;;;12.36;73.31;100288.53;10399380;28;20064;-60
2024/03/14 03:10:51;;;;;;;12.40;5.07;;;;;;;12.27;73.06;100295.91;10372363;28;20475;-60
2024/03/14 03:15:53;;;;;;;11.55;5.88;;;;;;;12.21;73.84;100299.38;10393542;28;20057;-60
2024/03/14 03:20:54;;;;;;;10.65;4.60;;;;;;;12.16;73.05;100291.81;10393185;28;20172;-60
2024/03/14 03:25:56;;;;;;;10.60;5.18;;;;;;;12.08;73.08;100308.09;10394209;28;20052;-59
2024/03/14 03:30:58;;;;;;;10.18;4.88;;;;;;;11.94;73.85;100300.88;10394434;28;20048;-59
2024/03/14 03:35:59;;;;;;;11.45;5.70;;;;;;;11.88;74.03;100302.41;10394920;28;20054;-60
2024/03/14 03:41:01;;;;;;;11.85;6.05;;;;;;;11.77;74.19;100286.69;10394696;28;20060;-61
2024/03/14 03:46:02;;;;;;;19.42;6.65;;;;;;;11.77;74.31;100284.88;10396278;28;20856;-63
2024/03/14 03:51:05;;;;;;;9.68;5.65;;;;;;;11.73;73.50;100283.56;10394965;28;20049;-59
2024/03/14 03:56:07;;;;;;;11.30;5.30;;;;;;;11.67;74.03;100290.53;10392653;28;20049;-60
2024/03/14 04:01:20;;;;;;;12.52;5.60;;;;;;;11.61;73.86;100277.81;10394659;28;20111;-60
2024/03/14 04:06:21;;;;;;;8.55;5.47;;;;;;;11.54;74.00;100278.72;10392210;28;20096;-60
2024/03/14 04:11:23;;;;;;;15.70;6.28;;;;;;;11.45;73.78;100272.56;10392230;28;20049;-60
2024/03/14 04:16:24;;;;;;;16.95;5.88;;;;;;;11.36;74.62;100268.31;10392727;28;20401;-60
2024/03/14 04:21:26;;;;;;;12.52;6.00;;;;;;;11.26;74.94;100271.25;10392012;28;20050;-60
2024/03/14 04:26:28;;;;;;;11.63;5.88;;;;;;;11.26;74.36;100272.09;10393068;28;20488;-60
2024/03/14 04:31:29;;;;;;;13.52;6.50;;;;;;;11.22;74.20;100278.84;10395317;28;20507;-60
2024/03/14 04:36:30;;;;;;;11.38;5.90;;;;;;;11.15;74.31;100272.50;10386529;28;20420;-60
2024/03/14 04:41:32;;;;;;;17.05;7.47;;;;;;;11.16;74.35;100278.72;10394521;28;20508;-60
2024/03/14 04:46:33;;;;;;;11.73;5.75;;;;;;;11.15;74.37;100274.38;10391315;28;20381;-60
2024/03/14 04:51:35;;;;;;;12.30;5.38;;;;;;;11.10;74.42;100280.31;10392945;28;20064;-60
2024/03/14 04:56:36;;;;;;;16.33;5.78;;;;;;;11.05;74.15;100277.31;10389360;28;20085;-60
2024/03/14 05:01:38;;;;;;;14.52;6.25;;;;;;;10.97;74.75;100278.22;10393210;28;20042;-60
2024/03/14 05:06:44;;;;;;;14.85;6.28;;;;;;;10.93;74.83;100278.75;10391870;28;20493;-60
2024/03/14 05:11:46;;;;;;;17.55;7.78;;;;;;;10.90;74.71;100279.97;10393637;28;20042;-60
2024/03/14 05:16:48;;;;;;;15.57;6.63;;;;;;;10.86;74.88;100287.56;10388978;28;20059;-60
2024/03/14 05:21:50;;;;;;;17.75;7.03;;;;;;;10.86;75.26;100284.00;10387012;28;20045;-60
2024/03/14 05:26:52;;;;;;;14.88;7.35;;;;;;;10.83;74.96;100285.22;10387813;28;20065;-59
2024/03/14 05:31:54;;;;;;;15.48;7.18;;;;;;;10.82;74.96;100280.88;10389522;28;20042;-59
2024/03/14 05:36:56;;;;;;;22.50;8.45;;;;;;;10.78;74.81;100274.19;10397103;28;20432;-59
2024/03/14 05:41:57;;;;;;;17.95;7.38;;;;;;;10.81;74.61;100275.66;10401823;28;20045;-63
2024/03/14 05:46:59;;;;;;;17.55;7.15;;;;;;;10.77;74.57;100277.03;10397659;28;20045;-62
2024/03/14 05:52:00;;;;;;;16.77;6.70;;;;;;;10.73;75.19;100276.56;10397839;28;20056;-63
2024/03/14 05:57:02;;;;;;;17.45;6.97;;;;;;;10.80;75.09;100274.84;10398488;28;20057;-63
2024/03/14 06:02:07;;;;;;;12.63;6.45;;;;;;;10.85;74.45;100276.97;10395721;28;20128;-64
2024/03/14 06:07:09;;;;;;;16.30;6.82;;;;;;;10.84;74.86;100275.28;10396171;28;20100;-64
2024/03/14 06:12:12;;;;;;;18.75;9.48;;;;;;;10.86;74.68;100263.34;10394486;28;20571;-64
2024/03/14 06:17:15;;;;;;;14.68;8.10;;;;;;;10.88;74.32;100265.84;10400095;28;20053;-63
2024/03/14 06:22:18;;;;;;;14.65;7.53;;;;;;;10.89;74.30;100264.84;10395642;28;20147;-63
2024/03/14 06:27:20;;;;;;;17.38;8.93;;;;;;;10.89;74.46;100262.16;10394717;28;20057;-64
2024/03/14 06:32:21;;;;;;;17.85;10.02;;;;;;;10.96;74.37;100263.09;10392090;28;20060;-64
2024/03/14 06:37:25;;;;;;;15.82;8.73;;;;;;;10.99;74.66;100265.41;10430365;28;20070;-62
2024/03/14 06:42:27;;;;;;;18.95;7.53;;;;;;;11.08;74.81;100269.72;10447283;28;20045;-62
2024/03/14 06:47:29;;;;;;;12.82;7.40;;;;;;;11.15;74.38;100264.44;10445239;28;20033;-62
2024/03/14 06:52:31;;;;;;;12.90;7.03;;;;;;;11.22;74.64;100268.09;10448199;28;20101;-62
2024/03/14 06:57:34;;;;;;;13.20;6.85;;;;;;;11.30;74.32;100269.88;10450519;28;20034;-62
2024/03/14 07:02:40;;;;;;;12.38;7.55;;;;;;;11.38;74.12;100272.47;10445068;28;20045;-62
2024/03/14 07:07:44;;;;;;;13.45;7.35;;;;;;;11.38;74.38;100275.16;10451812;28;20041;-62
2024/03/14 07:12:46;;;;;;;16.35;7.30;;;;;;;11.48;74.37;100277.59;10446479;28;20325;-62
2024/03/14 07:17:48;;;;;;;13.43;7.18;;;;;;;11.56;74.38;100277.50;10446306;28;20029;-62
2024/03/14 07:22:50;;;;;;;13.02;7.63;;;;;;;11.70;74.07;100281.22;10445034;28;20037;-61
2024/03/14 07:27:51;;;;;;;16.33;9.38;;;;;;;11.83;74.15;100286.81;10449350;28;20074;-62
2024/03/14 07:32:53;;;;;;;18.77;8.45;;;;;;;11.96;74.36;100293.44;10443033;28;20053;-61
2024/03/14 07:37:54;;;;;;;17.48;8.18;;;;;;;12.05;74.49;100287.75;10445868;28;20071;-61
2024/03/14 07:42:56;;;;;;;18.17;8.48;;;;;;;12.12;74.73;100284.31;10447911;28;20188;-61
2024/03/14 07:47:57;;;;;;;17.73;8.23;;;;;;;12.22;74.65;100290.25;10441916;28;20061;-60
2024/03/14 07:52:59;;;;;;;15.43;9.00;;;;;;;12.23;74.75;100281.16;10433459;28;20084;-60
2024/03/14 07:58:02;;;;;;;13.48;7.60;;;;;;;12.39;74.67;100289.00;10441866;28;20049;-60
2024/03/14 08:03:04;;;;;;;15.45;8.20;;;;;;;12.64;74.61;100283.28;10436345;28;20046;-60
2024/03/14 08:08:07;;;;;;;18.00;7.65;;;;;;;12.95;74.18;100284.81;10435870;28;21261;-60
2024/03/14 08:13:23;;;;;;;17.23;8.35;;;;;;;13.31;73.88;100283.91;10438904;28;20053;-60
2024/03/14 08:18:25;;;;;;;14.63;7.15;;;;;;;13.43;73.77;100285.91;10432092;28;20583;-60
2024/03/14 08:23:28;;;;;;;10.50;6.32;;;;;;;13.54;73.82;100284.50;10438505;28;20050;-60
2024/03/14 08:28:30;;;;;;;12.75;6.32;;;;;;;13.70;73.33;100283.34;10435125;28;20536;-60
2024/03/14 08:33:32;;;;;;;13.63;6.78;;;;;;;13.82;73.05;100289.03;10434388;28;20709;-61
2024/03/14 08:38:34;;;;;;;11.63;6.78;;;;;;;13.88;72.92;100283.69;10435674;28;20070;-60
2024/03/14 08:43:36;;;;;;;12.73;7.13;;;;;;;13.96;72.65;100287.25;10434385;28;20060;-60
2024/03/14 08:48:37;;;;;;;13.70;6.10;;;;;;;14.12;72.32;100281.53;10431684;28;20061;-60
2024/03/14 08:58:59;;;;;;;11.77;6.15;;;;;;;14.25;71.71;100284.28;10398700;28;20053;-63
2024/03/14 09:04:01;;;;;;;13.07;6.32;;;;;;;14.41;71.20;100285.78;10390139;28;20049;-63
2024/03/14 09:09:04;;;;;;;10.77;5.75;;;;;;;14.45;71.10;100283.50;10392360;28;20404;-63
2024/03/14 09:14:05;;;;;;;11.00;5.15;;;;;;;14.63;70.61;100280.25;10395473;28;20416;-64
2024/03/14 09:19:07;;;;;;;11.00;5.43;;;;;;;14.77;70.02;100281.97;10396060;28;20049;-63
2024/03/14 09:24:12;;;;;;;11.70;4.80;;;;;;;14.96;69.72;100282.22;10398997;28;20053;-64
2024/03/14 09:29:14;;;;;;;13.80;5.30;;;;;;;15.23;69.25;100283.06;10397219;28;20076;-63
2024/03/14 09:34:17;;;;;;;7.40;4.88;;;;;;;15.50;68.56;100280.31;10379189;28;20046;-63
2024/03/14 09:39:21;;;;;;;10.25;5.65;;;;;;;15.75;67.76;100272.41;10398112;28;20435;-63
2024/03/14 09:44:23;;;;;;;10.13;4.80;;;;;;;16.00;67.05;100273.38;10398048;28;20095;-63
2024/03/14 09:49:25;;;;;;;11.60;5.90;;;;;;;16.42;65.92;100276.53;10399523;28;20057;-64
2024/03/14 09:54:27;;;;;;;8.70;5.65;;;;;;;16.62;65.44;100272.88;10400220;28;20046;-64
2024/03/14 09:59:28;;;;;;;8.30;4.95;;;;;;;17.08;64.28;100273.66;10400140;28;20069;-63
2024/03/14 10:04:30;;;;;;;11.77;5.05;;;;;;;17.23;63.44;100272.28;10398009;28;20049;-64
2024/03/14 10:09:34;;;;;;;9.50;5.90;;;;;;;17.47;62.78;100268.94;10443367;28;20041;-62
2024/03/14 10:14:36;;;;;;;12.30;5.57;;;;;;;17.60;61.90;100266.94;10445450;28;20061;-61
2024/03/14 10:19:38;;;;;;;10.32;5.10;;;;;;;18.27;59.96;100260.78;10439377;28;20060;-61
2024/03/14 10:24:39;;;;;;;9.23;5.43;;;;;;;18.98;58.19;100256.44;10433173;28;20145;-61
2024/03/14 10:29:40;;;;;;;9.57;5.55;;;;;;;19.20;56.81;100255.88;10437234;28;20053;-61
2024/03/14 10:34:43;;;;;;;11.05;5.65;;;;;;;19.95;54.47;100248.88;10438451;28;20460;-60
2024/03/14 10:39:58;;;;;;;11.48;6.40;;;;;;;24.15;45.76;100232.31;10437228;28;20042;-64
2024/03/14 10:44:59;;;;;;;12.65;4.97;;;;;;;23.79;46.64;100231.31;10418051;28;20128;-63
2024/03/14 10:50:09;;;;;;;10.37;5.77;;;;;;;22.71;48.42;100244.19;10407274;28;20057;-61
2024/03/14 10:55:14;;;;;;;8.45;4.95;;;;;;;20.97;51.91;100236.34;10409379;28;20496;-63
2024/03/14 11:00:18;;;;;;;7.95;4.22;;;;;;;20.58;52.65;100226.09;10401048;28;20050;-65
2024/03/14 11:05:22;;;;;;;7.63;4.60;;;;;;;20.65;52.44;100222.41;10387357;28;20045;-61
2024/03/14 11:10:28;;;;;;;9.02;4.00;;;;;;;20.13;52.87;100218.69;10394835;28;20046;-65
2024/03/14 11:15:30;;;;;;;8.55;4.13;;;;;;;20.88;50.87;100216.81;10394811;28;20041;-65
2024/03/14 11:20:32;;;;;;;5.82;3.55;;;;;;;21.86;48.32;100210.06;10392048;28;20056;-61
2024/03/14 11:25:37;;;;;;;8.13;3.15;;;;;;;25.12;41.86;100198.66;10393100;28;20642;-61
2024/03/14 11:30:39;;;;;;;4.40;2.65;;;;;;;26.93;37.77;100193.19;10395244;28;20049;-62
2024/03/14 11:35:43;;;;;;;3.65;2.50;;;;;;;24.74;42.10;100203.63;10397156;28;20108;-62
2024/03/14 11:40:45;;;;;;;7.72;4.78;;;;;;;24.02;42.91;100199.84;10389421;28;20054;-62
2024/03/14 11:45:54;;;;;;;3.38;2.63;;;;;;;24.71;41.67;100182.16;10390813;28;20042;-62
2024/03/14 11:50:58;;;;;;;8.30;2.58;;;;;;;23.09;44.07;100184.78;10399050;28;20046;-61
2024/03/14 11:56:00;;;;;;;5.57;2.88;;;;;;;23.02;43.65;100180.56;10394758;28;20053;-62
2024/03/14 12:01:14;;;;;;;5.45;2.75;;;;;;;22.17;44.62;100192.09;10395798;28;20052;-61
2024/03/14 12:06:28;;;;;;;5.40;3.17;;;;;;;21.25;46.31;100168.97;10376577;28;20393;-61
2024/03/14 12:11:31;;;;;;;3.92;3.17;;;;;;;21.88;45.10;100164.94;10400169;28;20053;-62
2024/03/14 12:16:34;;;;;;;6.88;2.60;;;;;;;24.19;40.74;100144.72;10379651;28;20073;-62
2024/03/14 12:21:35;;;;;;;4.72;2.60;;;;;;;26.48;37.26;100133.41;10394306;28;20050;-61
2024/03/14 12:26:39;;;;;;;4.75;2.38;;;;;;;25.92;38.09;100131.81;10401697;28;20112;-59
2024/03/14 12:31:43;;;;;;;3.28;2.50;;;;;;;24.07;41.11;100130.38;10432001;28;20121;-61
2024/03/14 12:36:47;;;;;;;5.13;1.90;;;;;;;25.17;39.40;100119.97;10433598;28;20049;-62
2024/03/14 12:41:51;;;;;;;3.88;2.13;;;;;;;29.13;33.24;100100.97;10432784;28;20101;-63
2024/03/14 12:46:53;;;;;;;4.85;1.70;;;;;;;29.01;33.40;100095.91;10429090;28;20052;-63
2024/03/14 12:51:56;;;;;;;3.20;2.00;;;;;;;28.17;34.68;100088.47;10427935;28;20351;-62
2024/03/14 12:56:58;;;;;;;2.22;1.00;;;;;;;28.18;34.29;100081.81;10427401;28;20037;-62
2024/03/14 13:02:01;;;;;;;5.32;1.42;;;;;;;31.72;29.28;100071.09;10429608;28;20045;-61
2024/03/14 13:07:04;;;;;;;2.65;1.30;;;;;;;32.56;27.71;100066.97;10431470;28;20117;-63
2024/03/14 13:12:18;;;;;;;5.03;1.70;;;;;;;31.31;29.15;100045.28;10428178;28;20344;-63
2024/03/14 13:17:20;;;;;;;2.40;1.40;;;;;;;32.07;28.58;100046.91;10424588;28;20051;-61
2024/03/14 13:22:23;;;;;;;3.13;2.15;;;;;;;30.43;30.57;100046.00;10426041;28;20460;-62
2024/03/14 13:27:24;;;;;;;2.30;1.20;;;;;;;29.12;32.50;100050.34;10428840;28;20073;-63
2024/03/14 13:32:28;;;;;;;3.03;1.00;;;;;;;28.02;32.46;100051.69;10432859;28;20045;-63
2024/03/14 13:37:29;;;;;;;3.20;1.35;;;;;;;27.09;33.46;100037.41;10417308;28;20136;-63
2024/03/14 13:42:30;;;;;;;1.90;1.30;;;;;;;26.02;34.63;100036.47;10399545;28;20050;-62
2024/03/14 13:47:32;;;;;;;2.63;0.80;;;;;;;25.36;35.35;100038.50;10398932;28;20045;-62
2024/03/14 13:52:39;;;;;;;3.20;0.98;;;;;;;24.70;35.92;100032.06;10393372;28;20721;-63
2024/03/14 13:57:40;;;;;;;4.40;1.17;;;;;;;25.12;35.86;100027.28;10401683;28;20133;-63
2024/03/14 14:02:42;;;;;;;2.83;1.35;;;;;;;26.53;33.81;100013.97;10397755;28;20064;-63
2024/03/14 14:07:44;;;;;;;4.10;2.70;;;;;;;26.48;33.94;100012.09;10400773;28;20046;-63
2024/03/14 14:12:54;;;;;;;4.35;2.55;;;;;;;25.04;36.45;100008.59;10395204;28;20038;-63
2024/03/14 14:17:56;;;;;;;2.50;1.92;;;;;;;27.04;33.99;99996.09;10398146;28;20042;-64
2024/03/14 14:22:58;;;;;;;6.75;2.50;;;;;;;29.12;31.95;99991.38;10400036;28;20050;-64
2024/03/14 14:28:00;;;;;;;3.88;2.03;;;;;;;30.28;29.81;99980.66;10398569;28;21326;-63
2024/03/14 14:33:03;;;;;;;2.38;1.50;;;;;;;30.38;29.90;99974.84;10396066;28;20063;-64
2024/03/14 14:38:05;;;;;;;2.60;1.60;;;;;;;30.12;30.38;99969.13;10396092;28;20049;-63
2024/03/14 14:43:06;;;;;;;3.17;2.78;;;;;;;30.83;28.77;99965.59;10401359;28;20051;-63
2024/03/14 14:48:11;;;;;;;2.92;2.35;;;;;;;30.33;29.12;99949.22;10415197;28;20057;-62
2024/03/14 14:53:16;;;;;;;3.15;2.45;;;;;;;30.48;29.02;99948.78;10437816;28;20033;-63
2024/03/14 14:58:18;;;;;;;3.22;2.50;;;;;;;31.56;28.31;99923.44;10431406;28;20143;-63
2024/03/14 15:03:22;;;;;;;4.32;2.28;;;;;;;32.69;26.89;99919.59;10410376;28;20092;-63
2024/03/14 15:08:24;;;;;;;4.75;1.77;;;;;;;31.94;27.56;99915.22;10427543;28;20061;-62
2024/03/14 15:13:26;;;;;;;2.60;1.85;;;;;;;30.76;28.01;99915.28;10430104;28;20053;-64
2024/03/14 15:18:28;;;;;;;4.00;1.73;;;;;;;29.00;30.29;99917.16;10420814;28;20057;-62
2024/03/14 15:23:37;;;;;;;3.10;2.55;;;;;;;28.15;31.12;99909.13;10410728;28;20054;-61
2024/03/14 15:28:40;;;;;;;2.90;1.13;;;;;;;27.46;32.03;99901.41;10430555;28;20053;-59
2024/03/14 15:33:43;;;;;;;3.97;0.80;;;;;;;26.93;32.23;99885.03;10411223;28;20041;-59
2024/03/14 15:38:45;;;;;;;0.90;0.60;;;;;;;27.25;31.32;99876.06;10406411;28;20087;-59
2024/03/14 15:43:46;;;;;;;1.67;0.70;;;;;;;27.41;31.45;99867.53;10405593;28;20113;-59
2024/03/14 15:48:48;;;;;;;0.77;0.55;;;;;;;26.83;32.34;99874.13;10409260;28;20483;-59
2024/03/14 15:53:50;;;;;;;1.75;1.45;;;;;;;26.56;32.71;99866.44;10396007;28;20053;-61
2024/03/14 15:58:53;;;;;;;2.42;0.98;;;;;;;26.81;32.12;99865.34;10391375;28;20144;-63
2024/03/14 16:03:54;;;;;;;1.65;0.70;;;;;;;26.22;33.04;99865.44;10390671;28;20049;-62
2024/03/14 16:08:57;;;;;;;1.55;0.70;;;;;;;24.66;35.30;99874.28;10392780;28;20061;-62
2024/03/14 16:14:03;;;;;;;3.38;1.17;;;;;;;23.91;35.63;99866.78;10389019;28;20037;-62
2024/03/14 16:19:04;;;;;;;0.80;0.65;;;;;;;23.76;36.20;99866.75;10392804;28;20053;-63
2024/03/14 16:24:06;;;;;;;4.18;0.82;;;;;;;23.68;36.21;99861.84;10388134;28;20046;-62
2024/03/14 16:29:08;;;;;;;1.23;0.75;;;;;;;23.26;37.03;99858.25;10390372;28;20080;-64
2024/03/14 16:34:10;;;;;;;1.50;0.60;;;;;;;22.88;38.06;99854.81;10396220;28;20046;-60
2024/03/14 16:39:18;;;;;;;3.17;0.90;;;;;;;22.51;38.95;99861.28;10391275;28;20064;-63
2024/03/14 16:44:21;;;;;;;3.25;1.10;;;;;;;21.97;40.08;99859.56;10390335;28;20388;-63
2024/03/14 16:49:22;;;;;;;4.47;1.02;;;;;;;21.38;40.90;99852.25;10392585;28;20779;-63
2024/03/14 16:54:29;;;;;;;2.63;1.00;;;;;;;21.04;41.50;99850.84;10373040;28;20136;-63
2024/03/14 16:59:31;;;;;;;5.47;1.88;;;;;;;20.72;42.25;99843.41;10389054;28;20346;-65
2024/03/14 17:04:32;;;;;;;3.33;0.80;;;;;;;20.29;43.39;99851.28;10389074;28;20061;-64
2024/03/14 17:09:34;;;;;;;3.63;1.20;;;;;;;19.79;44.67;99847.56;10397684;28;20057;-59
2024/03/14 17:14:36;;;;;;;3.75;1.35;;;;;;;19.47;44.92;99857.38;10405738;28;20045;-59
2024/03/14 17:19:38;;;;;;;2.65;1.58;;;;;;;19.04;45.96;99851.47;10414840;28;20072;-62
2024/03/14 17:24:39;;;;;;;2.70;2.47;;;;;;;18.55;46.96;99851.84;10405270;28;20041;-58
2024/03/14 17:29:41;;;;;;;4.30;2.85;;;;;;;18.19;47.87;99858.44;10415764;28;20500;-58
2024/03/14 17:34:42;;;;;;;7.68;4.15;;;;;;;17.90;48.60;99855.59;10420234;28;20052;-62
2024/03/14 17:39:44;;;;;;;5.93;3.55;;;;;;;17.61;49.55;99860.03;10414320;28;20609;-59
2024/03/14 17:44:45;;;;;;;6.18;4.20;;;;;;;17.42;50.20;99864.75;10414932;28;20049;-59
2024/03/14 17:49:47;;;;;;;7.10;3.88;;;;;;;17.25;50.77;99862.66;10422564;28;20149;-59
2024/03/14 17:54:49;;;;;;;7.28;4.53;;;;;;;17.12;51.00;99868.31;10415712;28;20520;-58
2024/03/14 17:59:50;;;;;;;8.10;5.03;;;;;;;16.96;51.65;99867.06;10407392;28;20069;-59
2024/03/14 18:04:52;;;;;;;8.55;5.28;;;;;;;16.89;52.11;99869.03;10397971;28;20058;-59
2024/03/14 18:09:54;;;;;;;9.93;6.10;;;;;;;16.84;52.31;99871.59;10400530;28;20057;-59
2024/03/14 18:14:55;;;;;;;10.88;5.78;;;;;;;16.62;53.05;99869.34;10397562;28;20053;-58
2024/03/14 18:19:57;;;;;;;15.20;6.55;;;;;;;16.52;53.40;99865.53;10379855;28;20480;-61
2024/03/14 18:24:58;;;;;;;10.15;6.57;;;;;;;16.48;53.57;99862.41;10399461;28;20132;-61
2024/03/14 18:30:01;;;;;;;20.17;6.00;;;;;;;16.37;53.80;99872.16;10398777;28;20050;-61
2024/03/14 18:35:03;;;;;;;11.90;6.45;;;;;;;16.21;54.51;99870.03;10393496;28;20164;-61
2024/03/14 18:40:05;;;;;;;10.13;6.22;;;;;;;16.07;55.14;99877.47;10394031;28;20152;-60
2024/03/14 18:45:08;;;;;;;13.48;6.88;;;;;;;15.91;55.60;99878.88;10395652;28;20406;-61
2024/03/14 18:50:11;;;;;;;11.20;5.97;;;;;;;15.80;55.69;99877.72;10391404;28;20585;-60
2024/03/14 18:55:13;;;;;;;9.77;5.55;;;;;;;15.65;56.13;99875.31;10393944;28;20679;-61
2024/03/14 19:00:25;;;;;;;10.45;5.22;;;;;;;15.52;56.75;99867.31;10396969;28;20049;-60
2024/03/14 19:05:28;;;;;;;10.15;5.28;;;;;;;15.34;56.92;99880.75;10392140;28;20053;-60
2024/03/14 19:10:30;;;;;;;13.90;6.15;;;;;;;15.20;57.41;99877.31;10392597;28;20056;-61
2024/03/14 19:15:35;;;;;;;14.68;6.45;;;;;;;15.08;57.81;99874.47;10392133;28;20057;-60
2024/03/14 19:20:36;;;;;;;13.73;5.63;;;;;;;14.92;58.34;99867.69;10392346;28;20053;-61
2024/03/14 19:25:38;;;;;;;10.50;5.35;;;;;;;14.68;58.91;99871.97;10393495;28;20054;-60
2024/03/14 19:30:39;;;;;;;13.10;6.03;;;;;;;14.61;59.03;99868.44;10397880;28;20068;-57
2024/03/14 19:35:42;;;;;;;17.80;9.45;;;;;;;14.48;59.29;99864.72;10395266;28;20049;-58
2024/03/14 19:40:45;;;;;;;18.45;7.93;;;;;;;14.37;59.76;99868.09;10392867;28;20090;-58
2024/03/14 19:45:46;;;;;;;20.98;10.50;;;;;;;14.29;59.91;99862.91;10395429;28;20052;-56
2024/03/14 19:50:48;;;;;;;19.55;10.00;;;;;;;14.19;60.05;99857.13;10395902;28;20111;-57
2024/03/14 19:55:50;;;;;;;18.52;9.90;;;;;;;13.90;60.90;99861.94;10394898;28;20045;-58
2024/03/14 20:00:51;;;;;;;23.63;8.85;;;;;;;13.68;61.70;99867.59;10395957;28;20049;-59
2024/03/14 20:05:53;;;;;;;13.88;8.68;;;;;;;13.68;61.70;99867.59;10396962;28;20077;-59
2024/03/14 20:10:54;;;;;;;13.30;7.65;;;;;;;13.66;61.70;99866.97;10394772;28;20464;-58
2024/03/14 20:15:57;;;;;;;11.43;6.78;;;;;;;13.58;61.88;99867.16;10396192;28;20132;-58
2024/03/14 20:20:59;;;;;;;12.93;6.63;;;;;;;13.51;62.25;99873.59;10392268;28;20049;-58
2024/03/14 20:26:01;;;;;;;11.70;6.88;;;;;;;13.39;62.47;99862.56;10393008;28;20056;-60
2024/03/14 20:31:04;;;;;;;11.70;6.57;;;;;;;13.32;62.44;99865.28;10392970;28;20063;-57
2024/03/14 20:36:07;;;;;;;10.23;6.75;;;;;;;13.18;62.87;99864.41;10393647;28;20049;-58
2024/03/14 20:41:09;;;;;;;12.38;6.50;;;;;;;13.05;63.20;99862.53;10388739;28;20140;-61
2024/03/14 20:46:13;;;;;;;12.80;6.97;;;;;;;12.98;63.02;99858.97;10392562;28;20045;-62
2024/03/14 20:51:16;;;;;;;12.57;6.22;;;;;;;12.89;63.17;99862.88;10389727;28;20049;-61
2024/03/14 20:56:23;;;;;;;14.45;7.00;;;;;;;12.77;63.74;99857.22;10390143;28;20099;-60
2024/03/14 21:01:25;;;;;;;23.33;11.90;;;;;;;12.68;63.65;99850.38;10386318;28;20042;-60
2024/03/14 21:06:27;;;;;;;19.60;10.15;;;;;;;12.64;64.00;99855.34;10400035;28;20125;-60
2024/03/14 21:11:29;;;;;;;28.33;10.40;;;;;;;12.58;63.84;99850.75;10386869;28;20048;-60
2024/03/14 21:16:34;;;;;;;20.55;9.82;;;;;;;12.54;64.52;99856.72;10384814;28;20063;-60
2024/03/14 21:21:37;;;;;;;19.50;9.95;;;;;;;12.48;64.57;99863.78;10387592;28;20530;-60
2024/03/14 21:26:40;;;;;;;16.63;7.60;;;;;;;12.43;64.68;99864.38;10395061;28;20057;-60
2024/03/14 21:31:42;;;;;;;16.85;7.47;;;;;;;12.33;64.77;99865.78;10396243;28;20224;-61
2024/03/14 21:36:44;;;;;;;18.50;7.78;;;;;;;12.33;65.02;99853.13;10395017;28;20053;-60
2024/03/14 21:41:46;;;;;;;26.92;12.20;;;;;;;12.30;64.98;99858.91;10393923;28;20534;-60
2024/03/14 21:46:48;;;;;;;20.30;11.77;;;;;;;12.25;64.90;99854.13;10396733;28;20057;-57
2024/03/14 21:51:49;;;;;;;21.85;10.80;;;;;;;12.21;64.83;99858.25;10400349;28;20132;-57
2024/03/14 21:56:51;;;;;;;16.27;9.93;;;;;;;12.15;65.13;99859.03;10401340;28;20805;-57
2024/03/14 22:01:52;;;;;;;12.60;7.68;;;;;;;12.07;65.14;99851.94;10399280;28;20042;-59
2024/03/14 22:06:54;;;;;;;14.80;7.60;;;;;;;12.03;65.65;99850.69;10400133;28;20057;-58
2024/03/14 22:11:56;;;;;;;10.93;6.68;;;;;;;11.95;65.23;99842.75;10397322;28;20068;-57
2024/03/14 22:17:00;;;;;;;10.82;5.45;;;;;;;11.86;65.67;99843.91;10400649;28;20049;-57
2024/03/14 22:22:02;;;;;;;10.13;5.30;;;;;;;11.79;65.56;99841.19;10397175;28;20055;-57
2024/03/14 22:27:04;;;;;;;12.02;5.72;;;;;;;11.74;66.00;99837.41;10399101;28;20057;-59
2024/03/14 22:32:05;;;;;;;8.15;5.40;;;;;;;11.67;65.98;99845.41;10395480;28;20060;-60
2024/03/14 22:37:07;;;;;;;11.65;5.72;;;;;;;11.58;65.94;99843.91;10399417;28;20050;-58
2024/03/14 22:42:09;;;;;;;8.27;5.00;;;;;;;11.52;66.17;99842.81;10398627;28;20057;-57
2024/03/14 22:47:12;;;;;;;14.85;7.35;;;;;;;11.51;66.12;99836.63;10400604;28;20064;-58
2024/03/14 22:52:13;;;;;;;15.23;7.40;;;;;;;11.45;66.06;99836.53;10392002;28;20161;-58
2024/03/14 22:57:16;;;;;;;11.82;6.82;;;;;;;11.40;66.32;99836.31;10393715;28;20424;-57
2024/03/14 23:02:20;;;;;;;18.30;8.38;;;;;;;11.35;66.21;99839.56;10395951;28;20052;-57
2024/03/14 23:07:23;;;;;;;18.48;8.13;;;;;;;11.29;66.74;99833.13;10397126;28;20053;-57
2024/03/14 23:12:24;;;;;;;17.00;7.53;;;;;;;11.24;66.61;99829.34;10395958;28;20100;-59